Chopin — ZDFE4 — position and weather

sailwx.info

Track history (hours):
 
Tides and Currents Weather Stations Pressure Air Temp Water Temp Dewpoint Dewpoint Depression Visibility Wind Speed Wind Dir Waves Ship Positions

Chopin

Last reported at 2015-Mar-27 00:24 UTC. Time now 2015-Mar-28 16:04 UTC.
Position N 53°43' W 006°18'.

Length 104 m; draft 4.2 m.

Type: Cargo ship. MMSI: 236099000.

Date/timePositionNaut miles runAvg speedWind from/ knotsBaromVisibWave heightAir tempDewpointWater temp
2015-Mar-27 00:24N 53°43' W 006°18'0 0.0
2015-Mar-26 16:33N 53°43' W 006°18'0 0.0
2015-Mar-26 15:27N 53°43' W 006°18'0 0.0
2015-Mar-26 14:32N 53°43' W 006°18'2 2.0
2015-Mar-26 13:33N 53°43' W 006°15'3 2.1
2015-Mar-26 12:21N 53°44' W 006°11'0 0.0
2015-Mar-26 11:33N 53°44' W 006°11'0 0.0
2015-Mar-26 10:24N 53°44' W 006°11'0 0.0
2015-Mar-26 09:23N 53°44' W 006°11'95 6.4
2015-Mar-25 18:32N 53°34' W 003°32'8 8.2
2015-Mar-25 17:33N 53°28' W 003°21'6 5.6
2015-Mar-25 16:33N 53°31' W 003°14'9 8.5
2015-Mar-25 15:29N 53°26' W 003°01'0 0.1
2015-Mar-25 14:23N 53°27' W 003°01'0 0.0
2015-Mar-25 13:29N 53°27' W 003°01'0 0.0
2015-Mar-25 12:29N 53°27' W 003°01'0 0.0
2015-Mar-25 11:29N 53°27' W 003°01'0 0.0
2015-Mar-25 10:29N 53°27' W 003°01'0 0.0
2015-Mar-25 09:29N 53°27' W 003°01'1 0.8
2015-Mar-25 08:29N 53°27' W 003°01'0 0.2
2015-Mar-25 07:29N 53°27' W 003°01'0 0.0
2015-Mar-25 06:29N 53°27' W 003°01'0 0.0
2015-Mar-25 05:29N 53°27' W 003°01'0 0.0
2015-Mar-25 04:33N 53°27' W 003°01'0 0.0
2015-Mar-25 03:33N 53°27' W 003°01'0 0.0
2015-Mar-25 02:33N 53°27' W 003°01'0 0.0
2015-Mar-25 01:33N 53°27' W 003°01'0 0.0
2015-Mar-25 00:33N 53°27' W 003°01'0 0.0
2015-Mar-24 23:33N 53°27' W 003°01'0 0.0
2015-Mar-24 22:33N 53°27' W 003°01'0 0.0
2015-Mar-24 21:33N 53°27' W 003°01'0 0.0
2015-Mar-24 20:33N 53°27' W 003°01'0 0.0
2015-Mar-24 19:33N 53°27' W 003°01'0 0.0
2015-Mar-24 18:33N 53°27' W 003°01'0 0.0
2015-Mar-24 17:33N 53°27' W 003°01'0 0.0
2015-Mar-24 16:33N 53°27' W 003°01'0 0.0
2015-Mar-24 15:33N 53°27' W 003°01'0 0.3
2015-Mar-24 14:33N 53°27' W 003°01'1 1.4
2015-Mar-24 13:33N 53°28' W 003°03'9 9.5
2015-Mar-24 12:33N 53°31' W 003°18'1111.2
2015-Mar-24 11:32N 53°31' W 003°37'  
2015-Mar-17 05:13N 39°07' W 009°47'810.4
2015-Mar-17 04:30N 38°60' W 009°48'1010.3
2015-Mar-17 03:29N 38°49' W 009°50'1010.0
2015-Mar-17 02:32N 38°40' W 009°49'8 7.7
2015-Mar-17 01:33N 38°38' W 009°40'10 9.5
2015-Mar-17 00:33N 38°37' W 009°28'  
Track history (hours):
 
Tides and Currents Weather Stations Pressure Air Temp Water Temp Dewpoint Dewpoint Depression Visibility Wind Speed Wind Dir Waves Ship Positions

Chopin

Last reported at 2015-Mar-27 00:24 UTC. Time now 2015-Mar-28 16:04 UTC.
Position N 53°43' W 006°18'.

Length 104 m; draft 4.2 m.

Type: Cargo ship. MMSI: 236099000.

Date/timePositionNaut miles runAvg speedWind from/ knotsBaromVisibWave heightAir tempDewpointWater temp
2015-Mar-27 00:24N 53°43' W 006°18'0 0.0
2015-Mar-26 16:33N 53°43' W 006°18'0 0.0
2015-Mar-26 15:27N 53°43' W 006°18'0 0.0
2015-Mar-26 14:32N 53°43' W 006°18'2 2.0
2015-Mar-26 13:33N 53°43' W 006°15'3 2.1
2015-Mar-26 12:21N 53°44' W 006°11'0 0.0
2015-Mar-26 11:33N 53°44' W 006°11'0 0.0
2015-Mar-26 10:24N 53°44' W 006°11'0 0.0
2015-Mar-26 09:23N 53°44' W 006°11'95 6.4
2015-Mar-25 18:32N 53°34' W 003°32'8 8.2
2015-Mar-25 17:33N 53°28' W 003°21'6 5.6
2015-Mar-25 16:33N 53°31' W 003°14'9 8.5
2015-Mar-25 15:29N 53°26' W 003°01'0 0.1
2015-Mar-25 14:23N 53°27' W 003°01'0 0.0
2015-Mar-25 13:29N 53°27' W 003°01'0 0.0
2015-Mar-25 12:29N 53°27' W 003°01'0 0.0
2015-Mar-25 11:29N 53°27' W 003°01'0 0.0
2015-Mar-25 10:29N 53°27' W 003°01'0 0.0
2015-Mar-25 09:29N 53°27' W 003°01'1 0.8
2015-Mar-25 08:29N 53°27' W 003°01'0 0.2
2015-Mar-25 07:29N 53°27' W 003°01'0 0.0
2015-Mar-25 06:29N 53°27' W 003°01'0 0.0
2015-Mar-25 05:29N 53°27' W 003°01'0 0.0
2015-Mar-25 04:33N 53°27' W 003°01'0 0.0
2015-Mar-25 03:33N 53°27' W 003°01'0 0.0
2015-Mar-25 02:33N 53°27' W 003°01'0 0.0
2015-Mar-25 01:33N 53°27' W 003°01'0 0.0
2015-Mar-25 00:33N 53°27' W 003°01'0 0.0
2015-Mar-24 23:33N 53°27' W 003°01'0 0.0
2015-Mar-24 22:33N 53°27' W 003°01'0 0.0
2015-Mar-24 21:33N 53°27' W 003°01'0 0.0
2015-Mar-24 20:33N 53°27' W 003°01'0 0.0
2015-Mar-24 19:33N 53°27' W 003°01'0 0.0
2015-Mar-24 18:33N 53°27' W 003°01'0 0.0
2015-Mar-24 17:33N 53°27' W 003°01'0 0.0
2015-Mar-24 16:33N 53°27' W 003°01'0 0.0
2015-Mar-24 15:33N 53°27' W 003°01'0 0.3
2015-Mar-24 14:33N 53°27' W 003°01'1 1.4
2015-Mar-24 13:33N 53°28' W 003°03'9 9.5
2015-Mar-24 12:33N 53°31' W 003°18'1111.2
2015-Mar-24 11:32N 53°31' W 003°37'  
2015-Mar-17 05:13N 39°07' W 009°47'810.4
2015-Mar-17 04:30N 38°60' W 009°48'1010.3
2015-Mar-17 03:29N 38°49' W 009°50'1010.0
2015-Mar-17 02:32N 38°40' W 009°49'8 7.7
2015-Mar-17 01:33N 38°38' W 009°40'10 9.5
2015-Mar-17 00:33N 38°37' W 009°28'  

Dump ship's entire track history